createdAt,value
2023-06-23T00:00:26.556Z,21.12
2023-06-23T00:02:54.121Z,21.17
2023-06-23T00:05:21.693Z,21.19
2023-06-23T00:07:49.129Z,21.18
2023-06-23T00:10:16.571Z,21.14
2023-06-23T00:12:44.163Z,21.09
2023-06-23T00:15:13.775Z,21.08
2023-06-23T00:17:43.151Z,21.09
2023-06-23T00:20:20.591Z,21.07
2023-06-23T00:22:48.063Z,21.03
2023-06-23T00:25:15.470Z,20.97
2023-06-23T00:27:46.438Z,20.90
2023-06-23T00:30:14.789Z,20.87
2023-06-23T00:32:42.629Z,20.87
2023-06-23T00:35:10.042Z,20.86
2023-06-23T00:37:40.389Z,20.83
2023-06-23T00:40:14.858Z,20.78
2023-06-23T00:42:54.273Z,20.70
2023-06-23T00:45:25.403Z,20.66
2023-06-23T00:47:52.909Z,20.68
2023-06-23T00:50:21.618Z,20.67
2023-06-23T00:52:52.724Z,20.65
2023-06-23T00:55:24.746Z,20.63
2023-06-23T00:57:57.187Z,20.60
2023-06-23T01:00:29.286Z,20.59
2023-06-23T01:03:01.332Z,20.58
2023-06-23T01:05:32.397Z,20.57
2023-06-23T01:08:15.461Z,20.51
2023-06-23T01:11:02.367Z,20.43
2023-06-23T01:13:39.034Z,20.35
2023-06-23T01:16:32.651Z,20.35
2023-06-23T01:19:25.655Z,20.37
2023-06-23T01:22:13.382Z,20.35
2023-06-23T01:25:08.981Z,20.30
2023-06-23T01:27:51.962Z,20.24
2023-06-23T01:30:19.377Z,20.25
2023-06-23T01:32:52.107Z,20.27
2023-06-23T01:35:26.974Z,20.26
2023-06-23T01:37:59.021Z,20.21
2023-06-23T01:40:26.388Z,20.14
2023-06-23T01:42:58.581Z,20.14
2023-06-23T01:45:30.173Z,20.16
2023-06-23T01:48:00.604Z,20.12
2023-06-23T01:50:28.357Z,20.06
2023-06-23T01:52:55.871Z,19.98
2023-06-23T01:56:53.251Z,19.92
2023-06-23T01:59:21.691Z,19.89
2023-06-23T02:01:49.187Z,19.88
2023-06-23T02:04:16.962Z,19.86
2023-06-23T02:06:46.934Z,19.81
2023-06-23T02:09:34.660Z,19.78
2023-06-23T02:12:04.734Z,19.76
2023-06-23T02:14:32.199Z,19.77
2023-06-23T02:16:59.739Z,19.80
2023-06-23T02:19:27.571Z,19.81
2023-06-23T02:21:55.109Z,19.77
2023-06-23T02:24:22.510Z,19.71
2023-06-23T02:26:49.993Z,19.68
2023-06-23T02:29:17.438Z,19.67
2023-06-23T02:31:45.828Z,19.68
2023-06-23T02:34:14.331Z,19.67
2023-06-23T02:36:46.041Z,19.63
2023-06-23T02:39:14.740Z,19.58
2023-06-23T02:41:42.502Z,19.54
2023-06-23T02:44:15.306Z,19.57
2023-06-23T02:46:43.929Z,19.64
2023-06-23T02:49:24.667Z,19.66
2023-06-23T02:51:53.788Z,19.65
2023-06-23T02:54:21.266Z,19.66
2023-06-23T02:56:48.751Z,19.69
2023-06-23T02:59:17.887Z,19.75
2023-06-23T03:01:46.399Z,19.79
2023-06-23T03:04:13.877Z,19.79
2023-06-23T03:06:42.049Z,19.78
2023-06-23T03:09:12.371Z,19.76
2023-06-23T03:11:40.107Z,19.79
2023-06-23T03:14:08.189Z,19.84
2023-06-23T03:17:01.181Z,19.87
2023-06-23T03:19:38.073Z,19.87
2023-06-23T03:22:08.386Z,19.87
2023-06-23T03:24:39.350Z,19.88
2023-06-23T03:27:10.882Z,19.91
2023-06-23T03:29:45.327Z,19.93
2023-06-23T03:32:14.390Z,19.95
2023-06-23T03:34:44.866Z,19.96
2023-06-23T03:37:12.577Z,20.02
2023-06-23T03:39:41.784Z,20.09
2023-06-23T03:42:09.727Z,20.15
2023-06-23T03:44:42.730Z,20.19
2023-06-23T03:47:15.811Z,20.21
2023-06-23T03:49:45.831Z,20.23
2023-06-23T03:52:13.673Z,20.27
2023-06-23T03:54:41.347Z,20.33
2023-06-23T03:57:10.757Z,20.37
2023-06-23T03:59:38.319Z,20.39
2023-06-23T04:02:05.784Z,20.41
2023-06-23T04:04:33.790Z,20.43
2023-06-23T04:07:01.292Z,20.48
2023-06-23T04:09:28.855Z,20.55
2023-06-23T04:11:57.007Z,20.60
2023-06-23T04:14:24.483Z,20.63
2023-06-23T04:16:51.953Z,20.64
2023-06-23T04:19:19.763Z,20.65
2023-06-23T04:21:47.338Z,20.70
2023-06-23T04:24:14.755Z,20.77
2023-06-23T04:26:47.040Z,20.80
2023-06-23T04:29:14.559Z,20.82
2023-06-23T04:31:41.999Z,20.83
2023-06-23T04:34:09.512Z,20.83
2023-06-23T04:36:42.045Z,20.90
2023-06-23T04:39:21.009Z,21.00
2023-06-23T04:41:49.858Z,21.07
2023-06-23T04:44:17.265Z,21.14
2023-06-23T04:46:44.624Z,21.20
2023-06-23T04:49:12.254Z,21.26
2023-06-23T04:51:47.505Z,21.36
2023-06-23T04:54:41.244Z,21.49
2023-06-23T04:57:17.002Z,21.59
2023-06-23T04:59:49.375Z,21.66
2023-06-23T05:02:16.866Z,21.71
2023-06-23T05:04:44.460Z,21.77
2023-06-23T05:07:13.076Z,21.88
2023-06-23T05:09:40.484Z,22.00
2023-06-23T05:12:12.535Z,22.06
2023-06-23T05:14:40.965Z,22.12
2023-06-23T05:17:11.454Z,22.16
2023-06-23T05:19:41.016Z,22.20
2023-06-23T05:22:13.146Z,22.24
2023-06-23T05:24:42.485Z,22.31
2023-06-23T05:27:10.380Z,22.39
2023-06-23T05:29:39.601Z,22.46
2023-06-23T05:32:07.735Z,22.51
2023-06-23T05:34:35.111Z,22.56
2023-06-23T05:37:03.097Z,22.61
2023-06-23T05:39:30.902Z,22.70
2023-06-23T05:41:58.479Z,22.84
2023-06-23T05:44:25.896Z,22.96
2023-06-23T05:46:54.593Z,23.04
2023-06-23T05:49:22.818Z,23.11
2023-06-23T05:51:57.430Z,23.17
2023-06-23T05:54:25.418Z,23.23
2023-06-23T05:56:55.085Z,23.29
2023-06-23T05:59:28.909Z,23.38
2023-06-23T06:02:00.453Z,23.49
2023-06-23T06:04:30.519Z,23.60
2023-06-23T06:06:58.536Z,23.67
2023-06-23T06:09:28.638Z,23.75
2023-06-23T06:11:56.697Z,23.84
2023-06-23T06:14:24.489Z,23.90
2023-06-23T06:16:51.998Z,23.91
2023-06-23T06:19:21.970Z,23.94
2023-06-23T06:21:49.554Z,24.04
2023-06-23T06:24:17.147Z,24.17
2023-06-23T06:26:44.567Z,24.26
2023-06-23T06:29:12.368Z,24.33
2023-06-23T06:31:39.911Z,24.38
2023-06-23T06:34:08.037Z,24.44
2023-06-23T06:36:36.329Z,24.50
2023-06-23T06:39:03.997Z,24.56
2023-06-23T06:41:31.659Z,24.64
2023-06-23T06:43:59.194Z,24.70
2023-06-23T06:46:28.196Z,24.77
2023-06-23T06:48:56.739Z,24.84
2023-06-23T06:51:24.267Z,24.90
2023-06-23T06:53:51.712Z,24.95
2023-06-23T06:56:19.160Z,25.01
2023-06-23T06:58:46.639Z,25.14
2023-06-23T07:01:14.513Z,25.29
2023-06-23T07:03:44.453Z,25.42
2023-06-23T07:06:15.502Z,25.53
2023-06-23T07:08:43.963Z,25.65
2023-06-23T07:11:12.198Z,25.79
2023-06-23T07:13:40.442Z,25.91
2023-06-23T07:16:07.877Z,25.97
2023-06-23T07:18:35.323Z,26.03
2023-06-23T07:21:04.527Z,26.08
2023-06-23T07:23:32.319Z,26.17
2023-06-23T07:25:59.707Z,26.27
2023-06-23T07:28:27.194Z,26.37
2023-06-23T07:30:54.647Z,26.48
2023-06-23T07:33:22.126Z,26.56
2023-06-23T07:35:49.600Z,26.60
2023-06-23T07:38:17.125Z,26.64
2023-06-23T07:40:44.868Z,26.67
2023-06-23T07:43:12.435Z,26.68
2023-06-23T07:45:40.336Z,26.65
2023-06-23T07:48:07.824Z,26.66
2023-06-23T07:50:35.393Z,26.73
2023-06-23T07:53:02.823Z,26.84
2023-06-23T07:55:30.270Z,26.96
2023-06-23T07:57:57.741Z,27.09
2023-06-23T08:00:25.180Z,27.18
2023-06-23T08:02:52.781Z,27.28
2023-06-23T08:05:23.399Z,27.36
2023-06-23T08:07:50.850Z,27.43
2023-06-23T08:10:18.279Z,27.48
2023-06-23T08:12:45.682Z,27.54
2023-06-23T08:15:13.091Z,27.59
2023-06-23T08:17:40.577Z,27.62
2023-06-23T08:20:08.625Z,27.72
2023-06-23T08:22:39.563Z,27.83
2023-06-23T08:25:07.864Z,27.88
2023-06-23T08:27:35.550Z,27.92
2023-06-23T08:30:03.186Z,27.95
2023-06-23T08:32:30.635Z,27.99
2023-06-23T08:34:58.172Z,28.07
2023-06-23T08:37:25.726Z,28.15
2023-06-23T08:39:53.102Z,28.23
2023-06-23T08:42:20.574Z,28.29
2023-06-23T08:44:48.728Z,28.36
2023-06-23T08:47:16.462Z,28.47
2023-06-23T08:49:43.948Z,28.54
2023-06-23T08:52:12.052Z,28.61
2023-06-23T08:54:39.627Z,28.67
2023-06-23T08:57:07.847Z,28.72
2023-06-23T08:59:35.451Z,28.79
2023-06-23T09:02:03.130Z,28.86
2023-06-23T09:04:30.872Z,28.93
2023-06-23T09:06:58.389Z,29.03
2023-06-23T09:09:26.768Z,29.13
2023-06-23T09:11:54.171Z,29.24
2023-06-23T09:14:21.585Z,29.28
2023-06-23T09:16:48.947Z,29.35
2023-06-23T09:19:18.646Z,29.42
2023-06-23T09:21:46.950Z,29.44
2023-06-23T09:24:14.423Z,29.38
2023-06-23T09:26:48.766Z,29.29
2023-06-23T09:29:23.869Z,29.31
2023-06-23T09:31:52.525Z,29.43
2023-06-23T09:34:27.292Z,29.52
2023-06-23T09:37:06.640Z,29.54
2023-06-23T09:39:38.357Z,29.56
2023-06-23T09:42:07.661Z,29.59
2023-06-23T09:44:39.253Z,29.63
2023-06-23T09:47:07.208Z,29.65
2023-06-23T09:49:45.142Z,29.65
2023-06-23T09:52:14.248Z,29.67
2023-06-23T09:54:42.284Z,29.70
2023-06-23T09:57:13.849Z,29.75
2023-06-23T09:59:41.991Z,29.81
2023-06-23T10:02:10.672Z,29.86
2023-06-23T10:04:38.647Z,29.91
2023-06-23T10:07:27.447Z,29.93
2023-06-23T10:10:04.744Z,29.92
2023-06-23T10:12:41.608Z,29.93
2023-06-23T10:15:10.091Z,30.02
2023-06-23T10:17:37.835Z,30.08
2023-06-23T10:20:06.670Z,30.11
2023-06-23T10:22:34.230Z,30.17
2023-06-23T10:25:01.730Z,30.26
2023-06-23T10:27:30.347Z,30.30
2023-06-23T10:29:59.575Z,30.34
2023-06-23T10:32:31.434Z,30.36
2023-06-23T10:35:00.718Z,30.39
2023-06-23T10:37:39.598Z,30.43
2023-06-23T10:40:12.257Z,30.47
2023-06-23T10:42:39.671Z,30.53
2023-06-23T10:45:09.613Z,30.60
2023-06-23T10:47:40.478Z,30.69
2023-06-23T10:50:09.505Z,30.71
2023-06-23T10:52:37.174Z,30.70
2023-06-23T10:55:35.066Z,30.68
2023-06-23T10:58:18.921Z,30.71
2023-06-23T11:00:56.135Z,30.77
2023-06-23T11:03:30.489Z,30.83
2023-06-23T11:05:59.050Z,30.85
2023-06-23T11:08:34.436Z,30.89
2023-06-23T11:11:03.030Z,30.95
2023-06-23T11:13:52.891Z,31.01
2023-06-23T11:16:28.398Z,31.04
2023-06-23T11:19:01.278Z,31.06
2023-06-23T11:21:38.816Z,31.11
2023-06-23T11:24:16.104Z,31.17
2023-06-23T11:30:19.059Z,31.15
2023-06-23T11:32:46.548Z,31.13
2023-06-23T11:35:14.007Z,31.14
2023-06-23T11:37:41.454Z,31.12
2023-06-23T11:40:10.255Z,31.13
2023-06-23T11:42:37.979Z,31.16
2023-06-23T11:45:06.014Z,31.18
2023-06-23T11:47:34.716Z,31.22
2023-06-23T11:50:04.023Z,31.24
2023-06-23T11:52:31.422Z,31.23
2023-06-23T11:54:58.953Z,31.20
2023-06-23T11:57:26.430Z,31.21
2023-06-23T11:59:54.256Z,31.22
2023-06-23T12:02:22.104Z,31.22
2023-06-23T12:04:50.937Z,31.23
2023-06-23T12:07:18.766Z,31.25
2023-06-23T12:09:47.090Z,31.28
2023-06-23T12:12:17.233Z,31.31
2023-06-23T12:14:45.644Z,31.31
2023-06-23T12:17:13.753Z,31.32
2023-06-23T12:19:44.439Z,31.35
2023-06-23T12:22:19.391Z,31.40
2023-06-23T12:24:47.595Z,31.45
2023-06-23T12:27:15.729Z,31.44
2023-06-23T12:29:43.259Z,31.38
2023-06-23T12:32:10.904Z,31.30
2023-06-23T12:34:43.760Z,31.23
2023-06-23T12:37:18.975Z,31.18
2023-06-23T12:39:53.778Z,31.17
2023-06-23T12:42:22.027Z,31.20
2023-06-23T12:44:50.504Z,31.24
2023-06-23T12:47:21.028Z,31.27
2023-06-23T12:49:48.707Z,31.29
2023-06-23T12:52:16.765Z,31.28
2023-06-23T12:54:45.002Z,31.25
2023-06-23T12:57:13.169Z,31.18
2023-06-23T12:59:40.660Z,31.15
2023-06-23T13:02:09.895Z,31.16
2023-06-23T13:04:37.939Z,31.13
2023-06-23T13:07:05.751Z,31.13
2023-06-23T13:09:33.177Z,31.13
2023-06-23T13:12:00.644Z,31.15
2023-06-23T13:14:28.210Z,31.18
2023-06-23T13:16:55.638Z,31.21
2023-06-23T13:19:23.033Z,31.19
2023-06-23T13:21:52.915Z,31.14
2023-06-23T13:24:20.438Z,31.13
2023-06-23T13:26:49.359Z,31.12
2023-06-23T13:29:18.395Z,31.13
2023-06-23T13:31:46.134Z,31.15
2023-06-23T13:34:13.862Z,31.15
2023-06-23T13:36:41.319Z,31.14
2023-06-23T13:39:08.767Z,31.17
2023-06-23T13:41:36.229Z,31.17
2023-06-23T13:44:03.693Z,31.20
2023-06-23T13:46:31.211Z,31.25
2023-06-23T13:48:58.636Z,31.28
2023-06-23T13:51:26.068Z,31.28
2023-06-23T13:53:53.487Z,31.29
2023-06-23T13:56:21.057Z,31.32
2023-06-23T13:58:48.487Z,31.35
2023-06-23T14:01:15.925Z,31.37
2023-06-23T14:03:43.543Z,31.37
2023-06-23T14:06:11.157Z,31.34
2023-06-23T14:08:39.384Z,31.29
2023-06-23T14:11:06.784Z,31.24
2023-06-23T14:14:37.390Z,31.21
2023-06-23T14:17:05.303Z,31.16
2023-06-23T14:19:32.677Z,31.14
2023-06-23T14:22:01.316Z,31.12
2023-06-23T14:24:30.907Z,31.08
2023-06-23T14:26:58.324Z,31.05
2023-06-23T14:29:25.894Z,31.02
2023-06-23T14:31:53.352Z,30.97
2023-06-23T14:34:20.845Z,30.95
2023-06-23T14:36:50.642Z,30.93
2023-06-23T14:39:18.078Z,30.88
2023-06-23T14:41:46.455Z,30.81
2023-06-23T14:44:14.008Z,30.77
2023-06-23T14:46:41.609Z,30.75
2023-06-23T14:49:09.198Z,30.75
2023-06-23T14:51:36.702Z,30.74
2023-06-23T14:54:04.244Z,30.66
2023-06-23T14:56:31.880Z,30.59
2023-06-23T14:58:59.794Z,30.56
2023-06-23T15:01:27.369Z,30.57
2023-06-23T15:03:55.771Z,30.58
2023-06-23T15:06:24.407Z,30.60
2023-06-23T15:08:51.869Z,30.61
2023-06-23T15:11:19.339Z,30.63
2023-06-23T15:13:46.822Z,30.62
2023-06-23T15:16:14.622Z,30.61
2023-06-23T15:18:42.111Z,30.60
2023-06-23T15:21:09.743Z,30.59
2023-06-23T15:23:37.738Z,30.56
2023-06-23T15:26:05.240Z,30.53
2023-06-23T15:28:32.674Z,30.47
2023-06-23T15:31:00.967Z,30.45
2023-06-23T15:33:29.377Z,30.44
2023-06-23T15:35:56.836Z,30.43
2023-06-23T15:38:27.581Z,30.42
2023-06-23T15:40:54.969Z,30.40
2023-06-23T15:43:23.576Z,30.38
2023-06-23T15:45:51.230Z,30.35
2023-06-23T15:48:20.901Z,30.32
2023-06-23T15:50:48.863Z,30.32
2023-06-23T15:53:16.598Z,30.32
2023-06-23T15:55:44.008Z,30.32
2023-06-23T15:58:11.461Z,30.32
2023-06-23T16:00:39.154Z,30.30
2023-06-23T16:03:06.821Z,30.29
2023-06-23T16:05:35.944Z,30.28
2023-06-23T16:08:04.733Z,30.26
2023-06-23T16:10:34.442Z,30.22
2023-06-23T16:13:02.010Z,30.19
2023-06-23T16:15:29.544Z,30.17
2023-06-23T16:17:57.040Z,30.16
2023-06-23T16:20:24.465Z,30.14
2023-06-23T16:22:51.900Z,30.12
2023-06-23T16:25:19.473Z,30.09
2023-06-23T16:27:46.916Z,30.07
2023-06-23T16:30:14.547Z,30.04
2023-06-23T16:32:42.139Z,30.01
2023-06-23T16:35:09.793Z,30.00
2023-06-23T16:37:37.244Z,29.97
2023-06-23T16:40:05.375Z,29.94
2023-06-23T16:42:32.826Z,29.91
2023-06-23T16:45:00.355Z,29.89
2023-06-23T16:47:30.018Z,29.85
2023-06-23T16:49:57.570Z,29.81
2023-06-23T16:52:25.012Z,29.76
2023-06-23T16:54:52.540Z,29.71
2023-06-23T16:57:20.211Z,29.68
2023-06-23T16:59:47.696Z,29.64
2023-06-23T17:02:20.356Z,29.59
2023-06-23T17:04:47.910Z,29.52
2023-06-23T17:07:15.374Z,29.46
2023-06-23T17:09:42.885Z,29.39
2023-06-23T17:12:17.876Z,29.31
2023-06-23T17:14:47.188Z,29.23
2023-06-23T17:17:14.595Z,29.17
2023-06-23T17:19:42.127Z,29.10
2023-06-23T17:22:09.664Z,29.04
2023-06-23T17:24:37.073Z,28.97
2023-06-23T17:27:05.272Z,28.90
2023-06-23T17:29:35.970Z,28.83
2023-06-23T17:32:03.719Z,28.79
2023-06-23T17:34:31.273Z,28.73
2023-06-23T17:36:58.758Z,28.66
2023-06-23T17:39:26.271Z,28.60
2023-06-23T17:41:53.695Z,28.56
2023-06-23T17:44:21.110Z,28.52
2023-06-23T17:46:48.535Z,28.48
2023-06-23T17:49:15.948Z,28.42
2023-06-23T17:51:43.582Z,28.35
2023-06-23T17:54:11.028Z,28.28
2023-06-23T17:56:38.503Z,28.22
2023-06-23T17:59:10.425Z,28.18
2023-06-23T18:01:38.465Z,28.13
2023-06-23T18:04:08.463Z,28.09
2023-06-23T18:06:39.467Z,28.04
2023-06-23T18:09:06.996Z,27.99
2023-06-23T18:11:34.404Z,27.95
2023-06-23T18:14:01.793Z,27.91
2023-06-23T18:16:29.673Z,27.85
2023-06-23T18:18:57.148Z,27.79
2023-06-23T18:21:26.999Z,27.74
2023-06-23T18:23:55.085Z,27.72
2023-06-23T18:26:22.525Z,27.63
2023-06-23T18:28:50.077Z,27.27
2023-06-23T18:31:17.618Z,26.78
2023-06-23T18:33:47.554Z,26.14
2023-06-23T18:36:15.426Z,25.52
2023-06-23T18:38:42.844Z,24.92
2023-06-23T18:41:10.333Z,24.32
2023-06-23T18:43:37.787Z,23.90
2023-06-23T18:46:05.346Z,23.56
2023-06-23T18:48:34.763Z,23.24
2023-06-23T18:51:02.314Z,22.99
2023-06-23T18:53:34.261Z,22.75
2023-06-23T18:56:02.464Z,22.53
